Time;durP1;ratioP1;P1;durP2;ratioP2;P2;SDS_P1;SDS_P2;PMS_P1;PMS_P2;Temp;Humidity;BMP_temperature;BMP_pressure;BME280_temperature;BME280_humidity;BME280_pressure;Samples;Min_cycle;Max_cycle;Signal;HPM_P1;HPM_P2
2021/04/13 00:02:26;;;;;;;6.23;4.17;;;;;;;12.77;54.47;95796.16;5151312;27;20676;-61
2021/04/13 00:04:58;;;;;;;9.10;4.60;;;;;;;12.80;55.46;95808.59;5151506;27;20198;-61
2021/04/13 00:07:28;;;;;;;11.77;5.43;;;;;;;12.52;58.00;95807.97;5151277;27;20194;-62
2021/04/13 00:09:56;;;;;;;6.40;4.27;;;;;;;12.53;58.82;95803.53;5151128;27;20192;-60
2021/04/13 00:12:32;;;;;;;7.67;4.63;;;;;;;12.47;60.29;95807.31;5151048;27;20197;-61
2021/04/13 00:15:02;;;;;;;7.57;5.23;;;;;;;12.39;60.11;95815.84;5151435;27;20277;-62
2021/04/13 00:17:32;;;;;;;8.40;5.37;;;;;;;12.21;59.59;95822.75;5151063;27;20260;-61
2021/04/13 00:20:09;;;;;;;10.23;5.60;;;;;;;12.26;60.51;95824.47;5151057;27;20243;-61
2021/04/13 00:22:38;;;;;;;10.17;6.20;;;;;;;12.02;62.84;95822.16;5151351;27;20571;-61
2021/04/13 00:25:07;;;;;;;12.97;6.73;;;;;;;11.93;63.82;95829.13;5151070;27;20190;-62
2021/04/13 00:27:34;;;;;;;8.43;6.47;;;;;;;11.98;63.66;95827.19;5151009;27;20198;-60
2021/04/13 00:30:11;;;;;;;10.60;6.87;;;;;;;11.76;65.07;95827.13;5151257;27;20281;-62
2021/04/13 00:32:39;;;;;;;12.23;7.97;;;;;;;11.62;66.72;95831.53;5151028;27;20567;-61
2021/04/13 00:35:12;;;;;;;16.50;9.30;;;;;;;11.54;67.72;95840.03;5151277;27;20198;-61
2021/04/13 00:37:38;;;;;;;15.57;9.07;;;;;;;11.40;69.15;95837.47;5152498;27;20675;-61
2021/04/13 00:40:21;;;;;;;11.97;8.47;;;;;;;11.23;69.87;95839.84;5154810;27;20254;-61
2021/04/13 00:42:49;;;;;;;13.23;8.03;;;;;;;11.16;69.00;95835.00;5154575;27;20729;-63
2021/04/13 00:45:19;;;;;;;12.47;8.37;;;;;;;11.21;69.91;95837.53;5154691;27;20632;-61
2021/04/13 00:47:48;;;;;;;13.53;7.83;;;;;;;11.22;69.23;95836.47;5154760;27;20197;-61
2021/04/13 00:50:24;;;;;;;12.03;7.53;;;;;;;11.16;69.74;95848.03;5154649;27;20240;-60
2021/04/13 00:52:54;;;;;;;11.97;7.50;;;;;;;11.14;70.89;95842.34;5154430;27;20197;-61
2021/04/13 00:55:25;;;;;;;13.20;7.50;;;;;;;11.17;70.98;95844.38;5154238;27;20193;-62
2021/04/13 00:58:01;;;;;;;10.83;7.10;;;;;;;11.22;70.36;95841.66;5154730;27;20201;-62
2021/04/13 01:00:32;;;;;;;12.13;7.33;;;;;;;11.27;70.21;95840.03;5154436;27;20193;-61
2021/04/13 01:03:00;;;;;;;12.93;7.97;;;;;;;11.29;71.61;95837.91;5154190;27;20190;-61
2021/04/13 01:05:37;;;;;;;13.07;8.40;;;;;;;11.33;70.87;95831.84;5154147;27;20948;-61
2021/04/13 01:08:17;;;;;;;14.93;8.20;;;;;;;11.31;70.28;95836.56;5154128;27;20193;-61
2021/04/13 01:10:44;;;;;;;14.07;7.67;;;;;;;11.22;71.01;95840.91;5154263;27;20194;-62
2021/04/13 01:13:13;;;;;;;12.93;9.23;;;;;;;11.06;72.49;95832.59;5153929;27;20257;-61
2021/04/13 01:15:42;;;;;;;13.07;7.80;;;;;;;11.25;71.58;95839.56;5153897;27;20230;-64
2021/04/13 01:18:12;;;;;;;17.93;8.70;;;;;;;11.27;71.78;95840.81;5153852;27;20198;-62
2021/04/13 01:20:49;;;;;;;11.97;8.73;;;;;;;11.33;72.92;95844.09;5153829;27;20196;-62
2021/04/13 01:23:21;;;;;;;11.10;8.17;;;;;;;11.38;72.83;95844.00;5154026;27;20194;-61
2021/04/13 01:25:56;;;;;;;15.47;8.73;;;;;;;11.35;72.12;95836.78;5154030;27;20186;-62
2021/04/13 01:28:26;;;;;;;12.13;7.67;;;;;;;11.36;70.87;95831.25;5153871;27;20283;-61
2021/04/13 01:30:56;;;;;;;13.63;8.57;;;;;;;11.36;70.87;95836.47;5153533;27;20682;-62
2021/04/13 01:33:33;;;;;;;10.90;8.37;;;;;;;11.34;72.29;95832.63;5153682;27;20235;-62
2021/04/13 01:36:01;;;;;;;12.33;8.17;;;;;;;11.38;72.50;95828.38;5153941;27;20225;-61
2021/04/13 01:38:32;;;;;;;14.23;7.83;;;;;;;11.28;71.44;95834.53;5153576;27;20208;-61
2021/04/13 01:41:09;;;;;;;12.77;8.23;;;;;;;11.30;71.92;95839.47;5153625;27;20229;-61
2021/04/13 01:43:41;;;;;;;19.60;9.33;;;;;;;11.31;72.44;95835.81;5153961;27;20659;-60
2021/04/13 01:46:11;;;;;;;17.30;9.20;;;;;;;11.31;73.54;95835.81;5153561;27;20719;-60
2021/04/13 01:48:39;;;;;;;14.53;9.23;;;;;;;11.33;74.20;95842.25;5153352;27;20190;-61
2021/04/13 01:51:09;;;;;;;13.17;8.77;;;;;;;11.35;73.63;95836.78;5153228;27;20186;-61
2021/04/13 01:53:38;;;;;;;15.60;8.87;;;;;;;11.31;73.88;95833.22;5153110;27;20216;-61
2021/04/13 01:56:08;;;;;;;12.77;8.47;;;;;;;11.20;73.79;95827.44;5153457;27;20237;-62
2021/04/13 01:58:42;;;;;;;11.97;8.47;;;;;;;11.26;74.44;95834.06;5153224;27;20280;-60
2021/04/13 02:01:13;;;;;;;12.40;8.60;;;;;;;11.23;74.69;95835.41;5153279;27;20224;-62
2021/04/13 02:03:45;;;;;;;13.80;8.80;;;;;;;11.17;75.38;95836.56;5153267;27;20193;-60
2021/04/13 02:06:17;;;;;;;12.23;8.10;;;;;;;11.24;75.09;95833.59;5153016;27;20196;-61
2021/04/13 02:08:51;;;;;;;14.20;7.70;;;;;;;11.15;75.78;95836.09;5152993;27;20190;-63
2021/04/13 02:11:23;;;;;;;11.70;8.53;;;;;;;11.05;76.08;95833.66;5152802;27;20197;-61
2021/04/13 02:13:56;;;;;;;9.77;8.20;;;;;;;11.08;77.36;95843.50;5152466;27;20308;-61
2021/04/13 02:16:28;;;;;;;14.93;8.90;;;;;;;11.10;78.28;95838.78;5152713;27;20272;-61
2021/04/13 02:18:56;;;;;;;18.80;8.33;;;;;;;11.08;77.74;95838.28;5152680;27;20254;-62
2021/04/13 02:21:31;;;;;;;12.23;8.17;;;;;;;10.98;77.12;95838.47;5152701;27;20284;-61
2021/04/13 02:24:01;;;;;;;17.33;8.53;;;;;;;11.00;76.14;95835.59;5153004;27;20249;-61
2021/04/13 02:26:29;;;;;;;14.27;8.27;;;;;;;10.98;75.89;95828.06;5152435;27;20247;-61
2021/04/13 02:28:58;;;;;;;14.63;8.30;;;;;;;10.96;76.05;95824.97;5152620;27;20198;-60
2021/04/13 02:31:37;;;;;;;16.37;8.80;;;;;;;10.99;76.02;95823.63;5152566;27;20198;-62
2021/04/13 02:34:11;;;;;;;58.57;32.40;;;;;;;11.04;75.74;95826.94;5152574;27;20430;-61
2021/04/13 02:36:40;;;;;;;26.70;14.87;;;;;;;11.02;76.09;95823.81;5152447;27;20225;-61
2021/04/13 02:39:12;;;;;;;17.13;10.37;;;;;;;10.87;77.47;95823.31;5152462;27;20201;-62
2021/04/13 02:41:46;;;;;;;14.57;8.70;;;;;;;10.64;78.71;95822.41;5152230;27;20246;-61
2021/04/13 02:44:18;;;;;;;13.87;9.03;;;;;;;10.53;78.44;95828.81;5152633;27;20287;-61
2021/04/13 02:46:47;;;;;;;11.13;7.97;;;;;;;10.61;76.92;95826.34;5152483;27;20193;-61
2021/04/13 02:49:17;;;;;;;12.40;8.60;;;;;;;10.74;76.51;95828.22;5152278;27;20194;-61
2021/04/13 02:51:49;;;;;;;13.03;8.37;;;;;;;10.74;77.16;95832.63;5152145;27;20200;-63
2021/04/13 02:54:20;;;;;;;13.03;8.87;;;;;;;10.54;78.66;95830.38;5152108;27;20216;-61
2021/04/13 02:56:50;;;;;;;13.63;8.37;;;;;;;10.55;79.57;95824.13;5152266;27;20261;-62
2021/04/13 02:59:26;;;;;;;14.83;8.60;;;;;;;10.46;80.37;95818.03;5152153;27;20189;-61
2021/04/13 03:01:59;;;;;;;14.40;8.30;;;;;;;10.42;81.86;95827.44;5151886;27;20282;-63
2021/04/13 03:04:27;;;;;;;13.40;9.37;;;;;;;10.50;82.36;95826.81;5151966;27;20190;-61
2021/04/13 03:06:59;;;;;;;11.83;8.33;;;;;;;10.45;83.94;95829.47;5151871;27;20585;-62
2021/04/13 03:09:28;;;;;;;15.57;10.03;;;;;;;10.50;84.30;95826.81;5151822;27;20250;-63
2021/04/13 03:11:57;;;;;;;12.07;9.00;;;;;;;10.46;85.10;95831.78;5151789;27;20197;-63
2021/04/13 03:14:24;;;;;;;11.50;8.80;;;;;;;10.41;86.89;95833.69;5151562;27;20313;-64
2021/04/13 03:16:56;;;;;;;13.73;9.50;;;;;;;10.38;87.94;95835.03;5151578;27;20729;-62
2021/04/13 03:19:26;;;;;;;17.07;9.90;;;;;;;10.34;87.95;95845.22;5152136;27;20189;-61
2021/04/13 03:21:56;;;;;;;14.40;9.73;;;;;;;10.32;88.75;95836.16;5152053;27;20285;-60
2021/04/13 03:24:26;;;;;;;12.90;9.57;;;;;;;10.41;89.04;95829.25;5151968;27;20198;-61
2021/04/13 03:26:55;;;;;;;14.03;9.67;;;;;;;10.29;89.66;95839.31;5151481;27;20200;-62
2021/04/13 03:29:26;;;;;;;17.40;9.70;;;;;;;10.28;90.11;95840.38;5151172;27;20194;-63
2021/04/13 03:31:55;;;;;;;13.50;9.13;;;;;;;10.24;90.99;95837.56;5151401;27;20193;-62
2021/04/13 03:34:24;;;;;;;14.97;10.87;;;;;;;10.18;91.57;95830.91;5151236;27;20219;-62
2021/04/13 03:36:53;;;;;;;14.20;10.00;;;;;;;10.13;92.12;95830.94;5151267;27;20225;-63
2021/04/13 03:39:27;;;;;;;18.27;10.77;;;;;;;10.08;92.83;95833.59;5151435;27;20186;-62
2021/04/13 03:41:56;;;;;;;15.47;10.63;;;;;;;10.05;93.93;95826.41;5151216;27;20207;-62
2021/04/13 03:44:25;;;;;;;15.00;10.33;;;;;;;10.15;94.34;95826.25;5151419;27;20194;-62
2021/04/13 03:46:53;;;;;;;16.20;9.97;;;;;;;10.03;94.94;95825.88;5151035;27;20219;-63
2021/04/13 03:49:28;;;;;;;15.20;10.67;;;;;;;10.11;95.65;95834.88;5151363;27;20198;-64
2021/04/13 03:52:00;;;;;;;12.83;9.67;;;;;;;10.17;95.26;95829.34;5151158;27;20196;-62
2021/04/13 03:54:31;;;;;;;15.60;11.63;;;;;;;10.19;95.44;95826.47;5150881;27;20213;-62
2021/04/13 03:57:00;;;;;;;14.90;10.40;;;;;;;10.29;95.73;95821.91;5151191;27;20221;-62
2021/04/13 03:59:29;;;;;;;19.07;9.33;;;;;;;10.31;95.60;95819.78;5150898;27;20194;-62
2021/04/13 04:01:56;;;;;;;12.63;8.80;;;;;;;10.41;93.57;95810.31;5151092;27;20254;-62
2021/04/13 04:04:31;;;;;;;12.50;8.77;;;;;;;10.34;94.36;95815.88;5150922;27;20193;-62
2021/04/13 04:07:01;;;;;;;20.27;13.17;;;;;;;10.24;95.95;95824.59;5150906;27;20675;-62
2021/04/13 04:09:38;;;;;;;15.13;11.23;;;;;;;9.93;100.00;95834.59;5151282;27;20193;-62
2021/04/13 04:12:18;;;;;;;18.83;12.17;;;;;;;10.07;100.00;95834.66;5151752;27;20274;-62
2021/04/13 04:15:01;;;;;;;35.07;15.87;;;;;;;10.19;100.00;95836.88;5155399;27;20596;-62
2021/04/13 04:17:30;;;;;;;34.43;19.07;;;;;;;10.30;100.00;95839.03;5154950;27;20237;-63
2021/04/13 04:20:01;;;;;;;25.73;22.23;;;;;;;10.32;99.73;95843.94;5154947;27;20194;-62
2021/04/13 04:22:28;;;;;;;16.57;13.37;;;;;;;10.25;100.00;95840.94;5154931;27;20189;-62
2021/04/13 04:25:15;;;;;;;28.93;15.43;;;;;;;10.38;100.00;95842.81;5154816;27;20201;-63
2021/04/13 04:27:43;;;;;;;23.30;13.73;;;;;;;10.44;100.00;95838.31;5154547;27;20192;-63
2021/04/13 04:30:24;;;;;;;22.87;13.30;;;;;;;10.41;100.00;95842.25;5155153;27;20202;-63
2021/04/13 04:32:53;;;;;;;19.17;13.20;;;;;;;10.34;100.00;95845.22;5154713;27;20593;-61
2021/04/13 04:35:39;;;;;;;17.53;12.67;;;;;;;10.45;100.00;95845.84;5154462;27;20239;-62
2021/04/13 04:38:10;;;;;;;20.07;11.50;;;;;;;10.34;100.00;95850.41;5154250;27;20687;-62
2021/04/13 04:40:58;;;;;;;20.50;12.43;;;;;;;10.29;100.00;95844.50;5154490;27;20193;-63
2021/04/13 04:43:57;;;;;;;16.60;11.30;;;;;;;10.42;99.66;95838.59;5154138;27;20190;-63
2021/04/13 04:46:32;;;;;;;15.40;10.93;;;;;;;10.40;99.34;95837.34;5069978;28;20253;-61
2021/04/13 04:49:05;;;;;;;18.63;12.23;;;;;;;10.33;100.00;95840.28;5140955;27;20189;-62
2021/04/13 04:51:32;;;;;;;52.63;22.97;;;;;;;10.42;100.00;95840.41;5154092;27;20284;-64
2021/04/13 04:53:59;;;;;;;16.80;10.67;;;;;;;10.43;100.00;95827.16;5154220;27;20297;-62
2021/04/13 04:56:26;;;;;;;73.00;29.07;;;;;;;10.45;100.00;95832.06;5153814;27;20268;-63
2021/04/13 04:58:53;;;;;;;58.10;22.33;;;;;;;10.44;99.98;95823.50;5153859;27;20595;-63
2021/04/13 05:01:20;;;;;;;76.87;28.67;;;;;;;10.51;100.00;95825.75;5153869;27;20225;-62
2021/04/13 05:03:47;;;;;;;22.27;12.27;;;;;;;10.60;100.00;95821.44;5153778;27;20236;-62
2021/04/13 05:06:14;;;;;;;19.57;10.83;;;;;;;10.68;100.00;95823.38;5153907;27;20194;-62
2021/04/13 05:08:41;;;;;;;17.30;10.90;;;;;;;10.71;100.00;95818.38;5153955;27;20239;-62
2021/04/13 05:11:08;;;;;;;16.13;10.03;;;;;;;10.81;100.00;95821.88;5153955;27;20315;-62
2021/04/13 05:13:35;;;;;;;41.33;17.47;;;;;;;10.95;100.00;95822.69;5153434;27;20675;-61
2021/04/13 05:16:02;;;;;;;26.33;13.83;;;;;;;10.92;100.00;95816.19;5153334;27;20295;-62
2021/04/13 05:18:29;;;;;;;36.80;17.77;;;;;;;11.01;100.00;95817.06;5153797;27;20257;-62
2021/04/13 05:20:56;;;;;;;26.17;14.73;;;;;;;11.04;99.95;95816.53;5153583;27;20205;-62
2021/04/13 05:23:24;;;;;;;40.07;17.00;;;;;;;10.98;99.81;95809.88;5153001;27;20190;-61
2021/04/13 05:25:51;;;;;;;36.90;18.77;;;;;;;11.02;100.00;95797.03;5153306;27;20196;-60
2021/04/13 05:28:18;;;;;;;26.13;15.37;;;;;;;11.11;99.71;95793.50;5153306;27;20635;-62
2021/04/13 05:30:48;;;;;;;25.47;15.17;;;;;;;11.11;99.62;95793.50;5153617;27;20297;-61
2021/04/13 05:33:15;;;;;;;21.93;12.33;;;;;;;11.11;99.54;95793.50;5153082;27;20251;-61
2021/04/13 05:35:42;;;;;;;23.47;15.07;;;;;;;11.29;100.00;95788.50;5153121;27;20719;-62
2021/04/13 05:38:14;;;;;;;19.53;14.90;;;;;;;11.30;98.95;95785.59;5153276;27;20201;-62
2021/04/13 05:40:41;;;;;;;26.17;14.80;;;;;;;11.16;99.06;95779.63;5152985;27;20197;-62
2021/04/13 05:43:10;;;;;;;23.73;16.50;;;;;;;11.10;99.49;95783.38;5152975;27;20660;-63
2021/04/13 05:45:39;;;;;;;28.50;18.37;;;;;;;11.19;100.00;95782.44;5153338;27;20236;-63
2021/04/13 05:48:09;;;;;;;23.43;15.10;;;;;;;11.43;99.09;95781.44;5152874;27;20659;-62
2021/04/13 05:50:38;;;;;;;17.67;12.17;;;;;;;11.56;96.42;95775.44;5152948;27;20725;-63
2021/04/13 05:53:05;;;;;;;19.23;13.87;;;;;;;11.70;96.84;95771.00;5152748;27;20193;-63
2021/04/13 05:55:32;;;;;;;15.63;12.73;;;;;;;11.75;96.79;95768.31;5152909;27;20229;-62
2021/04/13 05:58:01;;;;;;;16.63;12.30;;;;;;;11.91;95.42;95766.13;5152791;27;20226;-62
2021/04/13 06:00:29;;;;;;;18.00;12.33;;;;;;;11.96;94.44;95755.59;5152665;27;20234;-63
2021/04/13 06:02:58;;;;;;;16.47;11.03;;;;;;;11.82;94.72;95744.47;5152574;27;20548;-63
2021/04/13 06:05:28;;;;;;;16.87;9.97;;;;;;;11.72;94.95;95753.25;5152760;27;20224;-61
2021/04/13 06:07:56;;;;;;;13.50;9.37;;;;;;;11.70;93.98;95760.59;5152640;27;20288;-62
2021/04/13 06:10:23;;;;;;;17.37;9.40;;;;;;;11.61;94.91;95759.72;5152478;27;20743;-62
2021/04/13 06:12:52;;;;;;;16.13;9.80;;;;;;;11.50;94.86;95745.41;5152292;27;20190;-61
2021/04/13 06:15:20;;;;;;;23.33;13.77;;;;;;;11.52;95.21;95741.44;5153016;27;20208;-63
2021/04/13 06:17:47;;;;;;;22.30;14.43;;;;;;;11.58;96.93;95739.50;5152774;27;20328;-63
2021/04/13 06:20:15;;;;;;;16.97;11.87;;;;;;;11.44;98.45;95738.75;5152604;27;20190;-62
2021/04/13 06:22:43;;;;;;;15.13;10.33;;;;;;;11.50;98.84;95724.56;5152776;27;20272;-63
2021/04/13 06:25:12;;;;;;;16.13;10.20;;;;;;;11.67;97.60;95719.50;5152514;27;20185;-63
2021/04/13 06:27:39;;;;;;;21.87;12.03;;;;;;;11.73;97.85;95712.38;5152755;27;20265;-63
2021/04/13 06:30:07;;;;;;;23.07;14.73;;;;;;;11.84;98.44;95714.47;5152400;27;20706;-63
2021/04/13 06:32:34;;;;;;;24.80;14.83;;;;;;;11.96;100.00;95721.75;5152164;27;20189;-62
2021/04/13 06:35:01;;;;;;;15.27;11.33;;;;;;;12.13;99.88;95728.91;5151499;27;20269;-62
2021/04/13 06:37:28;;;;;;;15.63;10.70;;;;;;;12.28;99.97;95718.91;5152320;27;20707;-63
2021/04/13 06:39:56;;;;;;;16.27;10.53;;;;;;;12.50;98.90;95710.28;5152396;27;20204;-63
2021/04/13 06:42:53;;;;;;;15.40;9.73;;;;;;;12.64;98.48;95718.03;5152278;27;20193;-63
2021/04/13 06:45:27;;;;;;;16.03;9.73;;;;;;;12.81;99.08;95705.81;5152267;27;20277;-64
2021/04/13 06:48:36;;;;;;;16.30;10.43;;;;;;;12.99;95.78;95706.66;5152189;27;20615;-64
2021/04/13 06:51:13;;;;;;;15.97;11.97;;;;;;;13.21;95.59;95692.75;5152328;27;20222;-62
2021/04/13 06:53:55;;;;;;;26.90;15.37;;;;;;;13.23;92.88;95693.22;5151937;27;20217;-62
2021/04/13 06:56:40;;;;;;;19.40;11.83;;;;;;;13.47;93.21;95701.38;5151960;27;20229;-64
2021/04/13 06:59:30;;;;;;;14.63;11.30;;;;;;;13.47;92.07;95700.63;5151941;27;20667;-63
2021/04/13 07:01:59;;;;;;;14.00;10.13;;;;;;;13.58;91.11;95710.47;5139511;27;20667;-62
2021/04/13 07:04:35;;;;;;;22.73;13.07;;;;;;;13.77;90.67;95712.78;5151952;27;20577;-63
2021/04/13 07:07:09;;;;;;;17.37;10.00;;;;;;;13.78;90.19;95709.84;5152295;27;20559;-62
2021/04/13 07:09:40;;;;;;;14.43;9.60;;;;;;;13.94;87.21;95725.84;5151908;27;20289;-62
2021/04/13 07:12:13;;;;;;;15.57;9.93;;;;;;;14.00;88.08;95724.59;5151799;27;20189;-63
2021/04/13 07:14:47;;;;;;;15.13;9.47;;;;;;;14.09;88.14;95724.59;5151490;27;20225;-64
2021/04/13 07:17:19;;;;;;;43.40;22.10;;;;;;;14.22;86.63;95728.88;5151871;27;20635;-62
2021/04/13 07:19:50;;;;;;;17.13;9.87;;;;;;;14.37;86.39;95725.03;5151623;27;20636;-63
2021/04/13 07:22:27;;;;;;;20.50;10.43;;;;;;;14.21;85.58;95727.34;5151721;27;20190;-63
2021/04/13 07:24:57;;;;;;;26.50;13.60;;;;;;;14.38;83.32;95723.97;5151788;27;20271;-63
2021/04/13 07:27:31;;;;;;;13.83;9.40;;;;;;;14.42;85.63;95722.25;5151475;27;20196;-63
2021/04/13 07:30:05;;;;;;;15.37;8.20;;;;;;;14.76;84.86;95726.63;5151789;27;20638;-62
2021/04/13 07:32:34;;;;;;;16.03;9.63;;;;;;;14.92;81.63;95725.78;5152021;27;20258;-62
2021/04/13 07:35:01;;;;;;;27.27;11.43;;;;;;;15.08;80.17;95723.41;5151651;27;20190;-63
2021/04/13 07:37:33;;;;;;;15.23;8.60;;;;;;;15.26;77.16;95721.47;5151364;27;20657;-62
2021/04/13 07:40:04;;;;;;;11.10;7.57;;;;;;;15.25;77.60;95715.44;5151409;27;20197;-63
2021/04/13 07:42:35;;;;;;;14.87;9.53;;;;;;;15.13;79.97;95717.22;5151813;27;20285;-63
2021/04/13 07:45:17;;;;;;;19.87;9.30;;;;;;;15.24;82.33;95715.78;5151486;27;20204;-63
2021/04/13 07:48:10;;;;;;;27.43;12.20;;;;;;;15.36;79.98;95716.63;5154837;27;20186;-63
2021/04/13 07:50:49;;;;;;;15.90;9.23;;;;;;;15.67;78.98;95710.28;5152769;27;20190;-63
2021/04/13 07:53:25;;;;;;;12.43;7.83;;;;;;;15.81;80.73;95710.78;5155505;27;20206;-64
2021/04/13 07:55:57;;;;;;;16.07;7.87;;;;;;;15.96;78.93;95706.81;5155420;27;20200;-63
2021/04/13 07:58:37;;;;;;;19.03;8.70;;;;;;;16.10;76.49;95705.44;5155620;27;20218;-63
2021/04/13 08:01:07;;;;;;;20.83;9.97;;;;;;;16.14;75.97;95697.72;5155820;27;20302;-63
2021/04/13 08:03:35;;;;;;;15.10;7.73;;;;;;;15.94;74.49;95699.25;5155596;27;20194;-63
2021/04/13 08:06:05;;;;;;;12.93;7.70;;;;;;;15.70;75.83;95707.78;5155332;27;20212;-63
2021/04/13 08:08:34;;;;;;;21.97;10.33;;;;;;;15.75;79.50;95698.97;5155224;27;20337;-63
2021/04/13 08:11:09;;;;;;;16.60;10.10;;;;;;;15.68;78.73;95696.09;5155020;27;20190;-64
2021/04/13 08:13:38;;;;;;;14.27;8.37;;;;;;;15.91;76.69;95699.91;5155043;27;20606;-64
2021/04/13 08:16:06;;;;;;;13.57;7.90;;;;;;;16.01;75.36;95699.53;5154978;27;20653;-63
2021/04/13 08:18:44;;;;;;;11.93;8.00;;;;;;;15.91;76.22;95697.28;5155117;27;20193;-63
2021/04/13 08:21:21;;;;;;;15.53;7.70;;;;;;;15.80;76.07;95699.53;5155076;27;20218;-64
2021/04/13 08:23:50;;;;;;;18.50;8.97;;;;;;;15.74;76.47;95700.81;5155452;27;20276;-63
2021/04/13 08:26:36;;;;;;;33.60;14.63;;;;;;;16.24;76.78;95687.56;5155024;27;20280;-64
2021/04/13 08:29:11;;;;;;;17.43;9.20;;;;;;;16.19;74.83;95690.41;5154914;27;20660;-63
2021/04/13 08:34:43;;;;;;;36.03;12.17;;;;;;;16.46;76.74;95691.69;5155142;27;20221;-64
2021/04/13 08:37:23;;;;;;;13.40;8.30;;;;;;;16.19;73.70;95685.16;5154524;27;20257;-62
2021/04/13 08:40:14;;;;;;;19.17;11.97;;;;;;;16.41;76.86;95685.88;5154508;27;20277;-63
2021/04/13 08:42:48;;;;;;;26.90;9.80;;;;;;;16.58;73.50;95690.94;5154568;27;20201;-62
2021/04/13 08:45:23;;;;;;;16.43;8.30;;;;;;;16.68;73.65;95680.81;5154604;27;20222;-62
2021/04/13 08:47:59;;;;;;;12.37;7.73;;;;;;;16.81;73.02;95678.94;5154406;27;20193;-62
2021/04/13 08:50:36;;;;;;;39.03;8.53;;;;;;;16.85;71.55;95682.44;5154466;27;20189;-63
2021/04/13 08:53:05;;;;;;;17.93;7.53;;;;;;;16.62;73.77;95678.72;5154416;27;20189;-64
2021/04/13 08:55:47;;;;;;;13.23;6.83;;;;;;;16.60;72.92;95673.03;5154466;27;20201;-63
2021/04/13 08:58:26;;;;;;;11.07;6.47;;;;;;;16.65;74.37;95678.06;5153603;27;20308;-63
2021/04/13 09:00:56;;;;;;;11.30;7.23;;;;;;;16.64;72.56;95676.53;5154321;27;20208;-62
2021/04/13 09:03:26;;;;;;;22.70;8.93;;;;;;;16.77;71.24;95668.34;5154506;27;20246;-63
2021/04/13 09:06:11;;;;;;;25.03;8.10;;;;;;;16.85;71.16;95664.06;5154290;27;20250;-62
2021/04/13 09:08:52;;;;;;;18.73;8.43;;;;;;;16.93;72.98;95657.97;5154213;27;20229;-62
2021/04/13 09:11:27;;;;;;;12.90;7.40;;;;;;;16.98;73.88;95652.50;5154356;27;20219;-62
2021/04/13 09:14:17;;;;;;;15.77;6.73;;;;;;;17.30;68.55;95661.28;5153883;27;20221;-62
2021/04/13 09:16:57;;;;;;;11.67;5.63;;;;;;;17.18;69.70;95656.06;5154112;27;20222;-62
2021/04/13 09:19:30;;;;;;;12.13;5.10;;;;;;;17.08;69.82;95649.41;5153972;27;20190;-63
2021/04/13 09:22:14;;;;;;;13.90;5.57;;;;;;;17.34;70.46;95654.28;5154121;27;20244;-63
2021/04/13 09:24:43;;;;;;;8.20;5.40;;;;;;;17.41;69.47;95653.72;5153783;27;20668;-63
2021/04/13 09:27:35;;;;;;;18.40;7.70;;;;;;;17.59;70.58;95653.16;5153752;27;20190;-63
2021/04/13 09:30:24;;;;;;;17.50;5.70;;;;;;;17.49;69.17;95652.81;5151420;27;20208;-62
2021/04/13 09:33:04;;;;;;;11.32;5.90;;;;;;;17.48;70.36;95648.69;5154049;27;20212;-62
2021/04/13 09:35:46;;;;;;;8.88;5.32;;;;;;;17.23;69.65;95642.72;5153569;27;20194;-62
2021/04/13 09:38:30;;;;;;;9.35;4.93;;;;;;;17.40;70.07;95646.94;5153206;27;20316;-63
2021/04/13 09:41:07;;;;;;;16.45;5.65;;;;;;;17.63;68.47;95650.63;5153768;27;20571;-63
2021/04/13 09:43:49;;;;;;;12.52;6.28;;;;;;;17.64;67.69;95652.13;5153524;27;20667;-63
2021/04/13 09:46:47;;;;;;;12.30;5.65;;;;;;;17.45;65.57;95644.84;5153488;27;20201;-63
2021/04/13 09:49:43;;;;;;;12.13;5.88;;;;;;;17.19;67.86;95652.34;5146945;27;20217;-64
2021/04/13 09:52:40;;;;;;;9.73;5.22;;;;;;;17.06;67.59;95635.84;5151150;27;20229;-64
2021/04/13 09:55:25;;;;;;;9.85;5.43;;;;;;;17.33;69.72;95625.72;5153152;27;20727;-63
2021/04/13 09:58:34;;;;;;;13.95;6.47;;;;;;;17.52;68.42;95625.88;5153309;27;20218;-63
2021/04/13 10:01:14;;;;;;;18.77;6.15;;;;;;;17.63;65.60;95634.88;5143506;27;20190;-63
2021/04/13 10:04:13;;;;;;;12.32;6.13;;;;;;;17.48;65.45;95630.28;5153788;27;20197;-64
2021/04/13 10:06:50;;;;;;;14.45;6.65;;;;;;;17.27;66.08;95627.06;5153075;27;20198;-63
2021/04/13 10:09:24;;;;;;;14.50;6.33;;;;;;;16.87;66.75;95630.41;5153079;27;20683;-62
2021/04/13 10:12:19;;;;;;;13.77;7.43;;;;;;;16.70;67.59;95626.13;5152875;27;20675;-63
2021/04/13 10:15:31;;;;;;;9.50;6.83;;;;;;;16.33;69.75;95622.69;5152711;27;20230;-63
2021/04/13 10:18:22;;;;;;;12.27;7.33;;;;;;;15.99;72.16;95628.28;5136816;27;20221;-62
2021/04/13 10:20:59;;;;;;;12.73;7.20;;;;;;;16.10;71.27;95628.66;5152746;27;20189;-63
2021/04/13 10:23:33;;;;;;;13.83;8.17;;;;;;;16.14;72.92;95627.66;5152918;27;20189;-63
2021/04/13 10:26:49;;;;;;;18.80;8.40;;;;;;;16.16;74.28;95620.25;5152731;27;20186;-63
2021/04/13 10:30:00;;;;;;;14.37;8.10;;;;;;;16.18;73.78;95623.34;5152495;27;20668;-64
2021/04/13 10:33:02;;;;;;;11.17;7.57;;;;;;;16.20;73.45;95618.50;5152655;27;20217;-63
2021/04/13 10:36:16;;;;;;;14.63;8.87;;;;;;;16.17;74.89;95618.41;5152424;27;20690;-63
2021/04/13 10:39:03;;;;;;;15.00;9.30;;;;;;;16.09;79.49;95609.53;5143632;27;20735;-63
2021/04/13 10:42:02;;;;;;;16.13;9.10;;;;;;;16.13;79.29;95628.78;5139258;27;20225;-62
2021/04/13 10:45:05;;;;;;;20.00;9.17;;;;;;;15.86;81.67;95621.50;5152300;27;20193;-63
2021/04/13 10:48:12;;;;;;;13.97;7.83;;;;;;;15.78;80.58;95620.50;5152320;27;20186;-61
2021/04/13 10:51:04;;;;;;;19.93;8.30;;;;;;;15.77;81.80;95620.81;5152213;27;20196;-61
2021/04/13 10:54:09;;;;;;;11.17;7.50;;;;;;;15.73;82.01;95614.69;5152000;27;20738;-63
2021/04/13 10:57:17;;;;;;;11.60;7.10;;;;;;;15.83;80.21;95617.66;5151759;27;20229;-63
2021/04/13 11:00:03;;;;;;;13.90;7.37;;;;;;;15.70;82.62;95617.94;5152458;27;20197;-63
2021/04/13 11:02:58;;;;;;;12.43;7.17;;;;;;;15.54;82.55;95617.03;5152358;27;20688;-63
2021/04/13 11:05:39;;;;;;;17.13;9.07;;;;;;;15.47;83.50;95607.78;5152036;27;20221;-62
2021/04/13 11:08:53;;;;;;;18.27;9.50;;;;;;;15.40;84.48;95607.53;5152368;27;20281;-63
2021/04/13 11:11:45;;;;;;;14.00;7.37;;;;;;;15.46;84.64;95605.47;5152162;27;20220;-64
2021/04/13 11:14:54;;;;;;;15.80;9.10;;;;;;;15.55;84.65;95600.97;5151708;27;20226;-63
2021/04/13 11:17:54;;;;;;;19.33;8.83;;;;;;;15.45;85.17;95596.84;5151799;27;20581;-63
2021/04/13 11:20:25;;;;;;;17.00;8.73;;;;;;;15.27;86.75;95589.47;5152216;27;20603;-63
2021/04/13 11:23:41;;;;;;;12.67;7.13;;;;;;;15.20;86.98;95584.72;5151951;27;20205;-63
2021/04/13 11:26:58;;;;;;;20.10;8.40;;;;;;;14.83;89.20;95580.38;5136169;27;20584;-62
2021/04/13 11:30:07;;;;;;;16.43;7.30;;;;;;;14.37;89.49;95563.69;5099042;27;20193;-62
2021/04/13 11:33:24;;;;;;;15.37;8.40;;;;;;;14.38;92.05;95562.63;5136652;27;20208;-63
2021/04/13 11:35:57;;;;;;;18.13;10.13;;;;;;;14.41;91.75;95572.44;5151653;27;20189;-63
2021/04/13 11:38:46;;;;;;;14.77;8.30;;;;;;;14.23;92.09;95565.75;5151553;27;20286;-62
2021/04/13 11:41:23;;;;;;;15.80;8.30;;;;;;;14.37;92.32;95555.09;5151502;27;20225;-62
2021/04/13 11:43:55;;;;;;;15.67;6.90;;;;;;;14.34;91.50;95551.25;5151724;27;20240;-63
2021/04/13 11:46:32;;;;;;;9.97;5.60;;;;;;;14.36;91.75;95554.31;5151883;27;20194;-62
2021/04/13 11:49:10;;;;;;;11.87;6.47;;;;;;;14.29;90.21;95555.88;5151560;27;20312;-62
2021/04/13 11:51:44;;;;;;;14.57;5.27;;;;;;;14.35;89.73;95555.38;5151509;27;20189;-63
2021/04/13 11:54:39;;;;;;;21.83;8.60;;;;;;;14.63;91.65;95563.56;5151530;27;20209;-63
2021/04/13 11:57:13;;;;;;;33.07;14.50;;;;;;;14.79;92.29;95569.03;5151439;27;20333;-63
2021/04/13 11:59:40;;;;;;;28.20;14.93;;;;;;;14.94;90.69;95566.59;5151568;27;20189;-63
2021/04/13 12:02:26;;;;;;;33.90;14.77;;;;;;;15.12;90.33;95553.38;5151151;27;20265;-62
2021/04/13 12:04:56;;;;;;;37.77;15.07;;;;;;;15.10;88.46;95558.94;5151624;27;20246;-63
2021/04/13 12:07:45;;;;;;;34.77;12.07;;;;;;;15.24;87.90;95554.19;5151270;27;20186;-62